成都 の空港の天気 - METARとTAF

成都双流国際空港 ( ZUUU / CTU ) - 中国 四川省成都市
飛行場実況気象(Metar)
観測時間12/07 04:00 CST (12/06 20:00 UTC)
風向・風速南南東 1m/s
視程10km以上
天気現象
全天の4割程度の雲 雲底高度 1220m
気温10℃
湿度71%
気圧1029hPa
METARZUUU 062000Z 15001MPS 9999 SCT040 10/05 Q1029 NOSIG
過去の天気等 Google飛行場航空写真 Wunderground天気予報

過去48時間のMETAR

飛行場予報(TAF)
発表時間: 12/06 22:26 CST (12/06 14:26 UTC)
予報対象時間: 7日2時 CST ~ 8日2時 CST
風向・風速南南西 3m/s
視程5000m
天気現象もや
全天の4割程度の雲 雲底高度 1520m
7日5時 CST ~ 7日6時 CST に徐々に
視程2000m
7日10時 CST ~ 7日11時 CST に徐々に
視程5000m
TAF ZUUU 061426Z 0618/0718 20003MPS 5000 BR SCT050 TX13/0707Z TN07/0622Z
BECMG 0621/0622 2000
BECMG 0702/0703 5000